sensor_id;sensor_type;location;lat;lon;timestamp;P1;durP1;ratioP1;P2;durP2;ratioP2
34924;SDS011;21130;51.728;8.748;2022-12-07T00:00:50;80.10;;;46.72;;
34924;SDS011;21130;51.728;8.748;2022-12-07T00:03:17;80.25;;;47.58;;
34924;SDS011;21130;51.728;8.748;2022-12-07T00:05:43;80.55;;;48.03;;
34924;SDS011;21130;51.728;8.748;2022-12-07T00:08:10;78.75;;;48.17;;
34924;SDS011;21130;51.728;8.748;2022-12-07T00:10:36;82.03;;;48.65;;
34924;SDS011;21130;51.728;8.748;2022-12-07T00:13:04;82.97;;;48.28;;
34924;SDS011;21130;51.728;8.748;2022-12-07T00:15:33;87.10;;;50.80;;
34924;SDS011;21130;51.728;8.748;2022-12-07T00:17:59;88.10;;;50.35;;
34924;SDS011;21130;51.728;8.748;2022-12-07T00:20:26;93.05;;;52.97;;
34924;SDS011;21130;51.728;8.748;2022-12-07T00:22:52;88.68;;;50.97;;
34924;SDS011;21130;51.728;8.748;2022-12-07T00:25:19;88.85;;;51.15;;
34924;SDS011;21130;51.728;8.748;2022-12-07T00:27:45;97.43;;;53.25;;
34924;SDS011;21130;51.728;8.748;2022-12-07T00:30:13;96.28;;;53.22;;
34924;SDS011;21130;51.728;8.748;2022-12-07T00:32:40;100.78;;;53.83;;
34924;SDS011;21130;51.728;8.748;2022-12-07T00:35:07;98.30;;;54.58;;
34924;SDS011;21130;51.728;8.748;2022-12-07T00:37:34;104.20;;;56.60;;
34924;SDS011;21130;51.728;8.748;2022-12-07T00:40:00;107.00;;;56.17;;
34924;SDS011;21130;51.728;8.748;2022-12-07T00:42:27;107.22;;;56.55;;
34924;SDS011;21130;51.728;8.748;2022-12-07T00:44:53;106.85;;;55.95;;
34924;SDS011;21130;51.728;8.748;2022-12-07T00:47:21;110.75;;;60.17;;
34924;SDS011;21130;51.728;8.748;2022-12-07T00:49:48;117.05;;;60.42;;
34924;SDS011;21130;51.728;8.748;2022-12-07T00:52:14;111.38;;;59.70;;
34924;SDS011;21130;51.728;8.748;2022-12-07T00:54:41;105.93;;;57.17;;
34924;SDS011;21130;51.728;8.748;2022-12-07T00:57:07;117.63;;;60.88;;
34924;SDS011;21130;51.728;8.748;2022-12-07T00:59:34;106.63;;;56.88;;
34924;SDS011;21130;51.728;8.748;2022-12-07T01:02:00;105.80;;;58.30;;
34924;SDS011;21130;51.728;8.748;2022-12-07T01:04:28;109.05;;;59.42;;
34924;SDS011;21130;51.728;8.748;2022-12-07T01:06:55;106.57;;;57.47;;
34924;SDS011;21130;51.728;8.748;2022-12-07T01:09:21;107.55;;;57.75;;
34924;SDS011;21130;51.728;8.748;2022-12-07T01:11:48;108.85;;;60.55;;
34924;SDS011;21130;51.728;8.748;2022-12-07T01:14:14;107.88;;;58.28;;
34924;SDS011;21130;51.728;8.748;2022-12-07T01:16:41;106.22;;;58.40;;
34924;SDS011;21130;51.728;8.748;2022-12-07T01:19:07;102.45;;;57.47;;
34924;SDS011;21130;51.728;8.748;2022-12-07T01:21:35;101.65;;;57.80;;
34924;SDS011;21130;51.728;8.748;2022-12-07T01:24:03;101.70;;;56.58;;
34924;SDS011;21130;51.728;8.748;2022-12-07T01:26:31;103.72;;;56.00;;
34924;SDS011;21130;51.728;8.748;2022-12-07T01:28:58;99.85;;;56.13;;
34924;SDS011;21130;51.728;8.748;2022-12-07T01:31:26;97.10;;;55.58;;
34924;SDS011;21130;51.728;8.748;2022-12-07T01:33:54;97.82;;;56.63;;
34924;SDS011;21130;51.728;8.748;2022-12-07T01:36:23;99.18;;;57.22;;
34924;SDS011;21130;51.728;8.748;2022-12-07T01:38:54;96.40;;;58.10;;
34924;SDS011;21130;51.728;8.748;2022-12-07T01:41:22;96.47;;;56.45;;
34924;SDS011;21130;51.728;8.748;2022-12-07T01:44:13;92.57;;;53.70;;
34924;SDS011;21130;51.728;8.748;2022-12-07T01:46:42;88.97;;;52.60;;
34924;SDS011;21130;51.728;8.748;2022-12-07T01:49:12;89.10;;;54.05;;
34924;SDS011;21130;51.728;8.748;2022-12-07T01:51:43;92.43;;;54.50;;
34924;SDS011;21130;51.728;8.748;2022-12-07T01:54:13;89.47;;;55.55;;
34924;SDS011;21130;51.728;8.748;2022-12-07T01:56:42;87.35;;;53.65;;
34924;SDS011;21130;51.728;8.748;2022-12-07T01:59:18;90.95;;;54.15;;
34924;SDS011;21130;51.728;8.748;2022-12-07T02:01:47;82.97;;;53.72;;
34924;SDS011;21130;51.728;8.748;2022-12-07T02:04:14;81.93;;;51.72;;
34924;SDS011;21130;51.728;8.748;2022-12-07T02:06:41;85.85;;;53.97;;
34924;SDS011;21130;51.728;8.748;2022-12-07T02:09:09;83.72;;;53.13;;
34924;SDS011;21130;51.728;8.748;2022-12-07T02:11:38;86.03;;;53.22;;
34924;SDS011;21130;51.728;8.748;2022-12-07T02:14:05;80.38;;;51.35;;
34924;SDS011;21130;51.728;8.748;2022-12-07T02:16:34;79.07;;;50.80;;
34924;SDS011;21130;51.728;8.748;2022-12-07T02:19:20;79.18;;;50.97;;
34924;SDS011;21130;51.728;8.748;2022-12-07T02:22:06;78.40;;;49.75;;
34924;SDS011;21130;51.728;8.748;2022-12-07T02:24:48;75.80;;;48.97;;
34924;SDS011;21130;51.728;8.748;2022-12-07T02:27:29;73.38;;;47.38;;
34924;SDS011;21130;51.728;8.748;2022-12-07T02:30:05;68.38;;;46.53;;
34924;SDS011;21130;51.728;8.748;2022-12-07T02:32:37;69.43;;;47.10;;
34924;SDS011;21130;51.728;8.748;2022-12-07T02:35:11;66.03;;;46.47;;
34924;SDS011;21130;51.728;8.748;2022-12-07T02:37:42;66.28;;;45.33;;
34924;SDS011;21130;51.728;8.748;2022-12-07T02:40:18;65.97;;;45.78;;
34924;SDS011;21130;51.728;8.748;2022-12-07T02:42:49;66.22;;;43.88;;
34924;SDS011;21130;51.728;8.748;2022-12-07T02:45:21;62.58;;;43.60;;
34924;SDS011;21130;51.728;8.748;2022-12-07T02:47:51;64.85;;;43.65;;
34924;SDS011;21130;51.728;8.748;2022-12-07T02:50:23;57.63;;;40.88;;
34924;SDS011;21130;51.728;8.748;2022-12-07T02:52:50;60.90;;;42.17;;
34924;SDS011;21130;51.728;8.748;2022-12-07T02:55:17;63.17;;;41.92;;
34924;SDS011;21130;51.728;8.748;2022-12-07T02:57:53;62.42;;;42.63;;
34924;SDS011;21130;51.728;8.748;2022-12-07T03:00:28;58.33;;;40.65;;
34924;SDS011;21130;51.728;8.748;2022-12-07T03:03:03;57.08;;;39.35;;
34924;SDS011;21130;51.728;8.748;2022-12-07T03:05:40;58.05;;;41.00;;
34924;SDS011;21130;51.728;8.748;2022-12-07T03:08:20;58.38;;;39.97;;
34924;SDS011;21130;51.728;8.748;2022-12-07T03:10:55;60.60;;;40.63;;
34924;SDS011;21130;51.728;8.748;2022-12-07T03:13:25;58.15;;;39.33;;
34924;SDS011;21130;51.728;8.748;2022-12-07T03:16:00;58.90;;;39.53;;
34924;SDS011;21130;51.728;8.748;2022-12-07T03:18:31;53.67;;;37.42;;
34924;SDS011;21130;51.728;8.748;2022-12-07T03:21:03;55.42;;;39.15;;
34924;SDS011;21130;51.728;8.748;2022-12-07T03:23:34;56.05;;;37.35;;
34924;SDS011;21130;51.728;8.748;2022-12-07T03:26:05;52.38;;;36.90;;
34924;SDS011;21130;51.728;8.748;2022-12-07T03:28:36;51.67;;;37.65;;
34924;SDS011;21130;51.728;8.748;2022-12-07T03:31:09;49.90;;;36.05;;
34924;SDS011;21130;51.728;8.748;2022-12-07T03:33:39;47.58;;;35.25;;
34924;SDS011;21130;51.728;8.748;2022-12-07T03:36:11;46.80;;;34.25;;
34924;SDS011;21130;51.728;8.748;2022-12-07T03:38:48;44.35;;;33.67;;
34924;SDS011;21130;51.728;8.748;2022-12-07T03:41:21;39.90;;;30.52;;
34924;SDS011;21130;51.728;8.748;2022-12-07T03:43:49;42.28;;;30.80;;
34924;SDS011;21130;51.728;8.748;2022-12-07T03:46:19;47.38;;;31.20;;
34924;SDS011;21130;51.728;8.748;2022-12-07T03:48:56;42.35;;;30.33;;
34924;SDS011;21130;51.728;8.748;2022-12-07T03:51:32;38.42;;;29.83;;
34924;SDS011;21130;51.728;8.748;2022-12-07T03:54:06;38.88;;;27.65;;
34924;SDS011;21130;51.728;8.748;2022-12-07T03:56:37;34.38;;;25.38;;
34924;SDS011;21130;51.728;8.748;2022-12-07T03:59:05;35.63;;;25.35;;
34924;SDS011;21130;51.728;8.748;2022-12-07T04:01:34;35.45;;;26.38;;
34924;SDS011;21130;51.728;8.748;2022-12-07T04:04:01;32.40;;;24.67;;
34924;SDS011;21130;51.728;8.748;2022-12-07T04:06:27;31.13;;;24.00;;
34924;SDS011;21130;51.728;8.748;2022-12-07T04:08:54;31.70;;;23.98;;
34924;SDS011;21130;51.728;8.748;2022-12-07T04:11:20;35.83;;;24.08;;
34924;SDS011;21130;51.728;8.748;2022-12-07T04:13:47;33.40;;;23.25;;
34924;SDS011;21130;51.728;8.748;2022-12-07T04:16:31;38.10;;;23.52;;
34924;SDS011;21130;51.728;8.748;2022-12-07T04:18:59;27.80;;;22.95;;
34924;SDS011;21130;51.728;8.748;2022-12-07T04:21:26;30.80;;;21.73;;
34924;SDS011;21130;51.728;8.748;2022-12-07T04:23:52;27.77;;;21.13;;
34924;SDS011;21130;51.728;8.748;2022-12-07T04:26:19;30.10;;;20.55;;
34924;SDS011;21130;51.728;8.748;2022-12-07T04:28:45;26.77;;;19.90;;
34924;SDS011;21130;51.728;8.748;2022-12-07T04:31:12;28.35;;;19.20;;
34924;SDS011;21130;51.728;8.748;2022-12-07T04:33:38;25.83;;;19.30;;
34924;SDS011;21130;51.728;8.748;2022-12-07T04:36:06;27.40;;;18.02;;
34924;SDS011;21130;51.728;8.748;2022-12-07T04:38:33;25.88;;;18.65;;
34924;SDS011;21130;51.728;8.748;2022-12-07T04:41:03;23.25;;;18.40;;
34924;SDS011;21130;51.728;8.748;2022-12-07T04:43:30;24.90;;;17.42;;
34924;SDS011;21130;51.728;8.748;2022-12-07T04:45:57;20.85;;;17.10;;
34924;SDS011;21130;51.728;8.748;2022-12-07T04:48:24;21.23;;;17.05;;
34924;SDS011;21130;51.728;8.748;2022-12-07T04:50:50;23.13;;;16.50;;
34924;SDS011;21130;51.728;8.748;2022-12-07T04:53:18;26.83;;;16.42;;
34924;SDS011;21130;51.728;8.748;2022-12-07T04:55:45;22.65;;;16.15;;
34924;SDS011;21130;51.728;8.748;2022-12-07T04:58:11;22.00;;;15.98;;
34924;SDS011;21130;51.728;8.748;2022-12-07T05:00:39;24.77;;;16.58;;
34924;SDS011;21130;51.728;8.748;2022-12-07T05:03:05;22.90;;;16.02;;
34924;SDS011;21130;51.728;8.748;2022-12-07T05:05:32;25.20;;;16.90;;
34924;SDS011;21130;51.728;8.748;2022-12-07T05:07:59;24.10;;;16.08;;
34924;SDS011;21130;51.728;8.748;2022-12-07T05:10:26;21.40;;;16.92;;
34924;SDS011;21130;51.728;8.748;2022-12-07T05:12:53;26.25;;;18.85;;
34924;SDS011;21130;51.728;8.748;2022-12-07T05:15:19;26.92;;;19.85;;
34924;SDS011;21130;51.728;8.748;2022-12-07T05:17:46;25.60;;;19.17;;
34924;SDS011;21130;51.728;8.748;2022-12-07T05:20:12;28.73;;;20.00;;
34924;SDS011;21130;51.728;8.748;2022-12-07T05:22:39;28.85;;;20.10;;
34924;SDS011;21130;51.728;8.748;2022-12-07T05:25:07;29.75;;;20.67;;
34924;SDS011;21130;51.728;8.748;2022-12-07T05:27:36;30.05;;;20.75;;
34924;SDS011;21130;51.728;8.748;2022-12-07T05:30:02;31.17;;;22.63;;
34924;SDS011;21130;51.728;8.748;2022-12-07T05:32:30;29.55;;;22.00;;
34924;SDS011;21130;51.728;8.748;2022-12-07T05:34:56;30.50;;;23.52;;
34924;SDS011;21130;51.728;8.748;2022-12-07T05:37:23;29.35;;;22.73;;
34924;SDS011;21130;51.728;8.748;2022-12-07T05:39:49;31.90;;;22.90;;
34924;SDS011;21130;51.728;8.748;2022-12-07T05:42:16;31.70;;;22.58;;
34924;SDS011;21130;51.728;8.748;2022-12-07T05:44:45;30.30;;;22.98;;
34924;SDS011;21130;51.728;8.748;2022-12-07T05:47:12;31.15;;;21.75;;
34924;SDS011;21130;51.728;8.748;2022-12-07T05:49:41;31.17;;;22.48;;
34924;SDS011;21130;51.728;8.748;2022-12-07T05:52:07;32.55;;;24.30;;
34924;SDS011;21130;51.728;8.748;2022-12-07T05:54:34;35.40;;;23.98;;
34924;SDS011;21130;51.728;8.748;2022-12-07T05:57:00;33.60;;;23.92;;
34924;SDS011;21130;51.728;8.748;2022-12-07T05:59:27;29.52;;;21.83;;
34924;SDS011;21130;51.728;8.748;2022-12-07T06:01:55;35.47;;;23.38;;
34924;SDS011;21130;51.728;8.748;2022-12-07T06:04:22;31.33;;;21.73;;
34924;SDS011;21130;51.728;8.748;2022-12-07T06:06:50;32.13;;;22.23;;
34924;SDS011;21130;51.728;8.748;2022-12-07T06:09:16;29.05;;;23.35;;
34924;SDS011;21130;51.728;8.748;2022-12-07T06:11:44;33.67;;;22.10;;
34924;SDS011;21130;51.728;8.748;2022-12-07T06:14:28;30.30;;;22.10;;
34924;SDS011;21130;51.728;8.748;2022-12-07T06:16:57;32.95;;;22.23;;
34924;SDS011;21130;51.728;8.748;2022-12-07T06:19:24;32.30;;;22.38;;
34924;SDS011;21130;51.728;8.748;2022-12-07T06:21:51;31.95;;;22.27;;
34924;SDS011;21130;51.728;8.748;2022-12-07T06:24:18;33.13;;;22.42;;
34924;SDS011;21130;51.728;8.748;2022-12-07T06:26:45;31.95;;;22.88;;
34924;SDS011;21130;51.728;8.748;2022-12-07T06:29:12;32.50;;;22.25;;
34924;SDS011;21130;51.728;8.748;2022-12-07T06:31:39;30.20;;;22.25;;
34924;SDS011;21130;51.728;8.748;2022-12-07T06:34:09;35.00;;;22.45;;
34924;SDS011;21130;51.728;8.748;2022-12-07T06:36:37;34.65;;;22.60;;
34924;SDS011;21130;51.728;8.748;2022-12-07T06:39:03;33.85;;;22.58;;
34924;SDS011;21130;51.728;8.748;2022-12-07T06:41:30;34.08;;;22.90;;
34924;SDS011;21130;51.728;8.748;2022-12-07T06:43:56;35.65;;;24.52;;
34924;SDS011;21130;51.728;8.748;2022-12-07T06:46:23;34.92;;;24.70;;
34924;SDS011;21130;51.728;8.748;2022-12-07T06:48:50;36.25;;;24.80;;
34924;SDS011;21130;51.728;8.748;2022-12-07T06:51:18;38.35;;;24.58;;
34924;SDS011;21130;51.728;8.748;2022-12-07T06:53:47;36.15;;;24.83;;
34924;SDS011;21130;51.728;8.748;2022-12-07T06:56:13;39.67;;;25.60;;
34924;SDS011;21130;51.728;8.748;2022-12-07T06:58:40;35.33;;;24.90;;
34924;SDS011;21130;51.728;8.748;2022-12-07T07:01:08;37.10;;;23.80;;
34924;SDS011;21130;51.728;8.748;2022-12-07T07:03:35;37.55;;;24.10;;
34924;SDS011;21130;51.728;8.748;2022-12-07T07:06:02;37.65;;;25.13;;
34924;SDS011;21130;51.728;8.748;2022-12-07T07:08:30;33.75;;;23.95;;
34924;SDS011;21130;51.728;8.748;2022-12-07T07:10:56;34.17;;;24.55;;
34924;SDS011;21130;51.728;8.748;2022-12-07T07:13:23;34.13;;;23.42;;
34924;SDS011;21130;51.728;8.748;2022-12-07T07:15:49;33.90;;;21.85;;
34924;SDS011;21130;51.728;8.748;2022-12-07T07:18:16;38.88;;;24.02;;
34924;SDS011;21130;51.728;8.748;2022-12-07T07:20:43;36.92;;;23.48;;
34924;SDS011;21130;51.728;8.748;2022-12-07T07:23:09;35.03;;;23.88;;
34924;SDS011;21130;51.728;8.748;2022-12-07T07:25:37;36.25;;;23.92;;
34924;SDS011;21130;51.728;8.748;2022-12-07T07:28:04;35.40;;;24.33;;
34924;SDS011;21130;51.728;8.748;2022-12-07T07:30:31;31.63;;;21.73;;
34924;SDS011;21130;51.728;8.748;2022-12-07T07:32:58;34.75;;;22.98;;
34924;SDS011;21130;51.728;8.748;2022-12-07T07:35:24;35.22;;;21.83;;
34924;SDS011;21130;51.728;8.748;2022-12-07T07:37:51;32.15;;;22.13;;
34924;SDS011;21130;51.728;8.748;2022-12-07T07:40:18;33.08;;;22.48;;
34924;SDS011;21130;51.728;8.748;2022-12-07T07:42:47;32.63;;;21.67;;
34924;SDS011;21130;51.728;8.748;2022-12-07T07:45:14;35.72;;;21.30;;
34924;SDS011;21130;51.728;8.748;2022-12-07T07:47:41;32.95;;;20.10;;
34924;SDS011;21130;51.728;8.748;2022-12-07T07:50:08;31.05;;;19.98;;
34924;SDS011;21130;51.728;8.748;2022-12-07T07:52:36;34.20;;;19.75;;
34924;SDS011;21130;51.728;8.748;2022-12-07T07:55:03;28.40;;;19.42;;
34924;SDS011;21130;51.728;8.748;2022-12-07T07:57:30;29.52;;;20.15;;
34924;SDS011;21130;51.728;8.748;2022-12-07T07:59:58;28.75;;;18.73;;
34924;SDS011;21130;51.728;8.748;2022-12-07T08:02:25;25.15;;;18.63;;
34924;SDS011;21130;51.728;8.748;2022-12-07T08:04:51;28.65;;;18.63;;
34924;SDS011;21130;51.728;8.748;2022-12-07T08:07:17;26.65;;;18.90;;
34924;SDS011;21130;51.728;8.748;2022-12-07T08:09:44;31.38;;;19.42;;
34924;SDS011;21130;51.728;8.748;2022-12-07T08:12:10;33.83;;;19.70;;
34924;SDS011;21130;51.728;8.748;2022-12-07T08:14:37;27.45;;;19.13;;
34924;SDS011;21130;51.728;8.748;2022-12-07T08:17:05;24.48;;;18.27;;
34924;SDS011;21130;51.728;8.748;2022-12-07T08:19:31;27.48;;;18.65;;
34924;SDS011;21130;51.728;8.748;2022-12-07T08:21:59;29.63;;;18.85;;
34924;SDS011;21130;51.728;8.748;2022-12-07T08:24:26;31.45;;;19.60;;
34924;SDS011;21130;51.728;8.748;2022-12-07T08:26:52;25.15;;;18.40;;
34924;SDS011;21130;51.728;8.748;2022-12-07T08:29:19;30.38;;;19.67;;
34924;SDS011;21130;51.728;8.748;2022-12-07T08:31:46;31.13;;;19.13;;
34924;SDS011;21130;51.728;8.748;2022-12-07T08:34:14;30.85;;;20.15;;
34924;SDS011;21130;51.728;8.748;2022-12-07T08:36:41;26.58;;;19.77;;
34924;SDS011;21130;51.728;8.748;2022-12-07T08:39:07;28.45;;;18.73;;
34924;SDS011;21130;51.728;8.748;2022-12-07T08:41:34;28.40;;;20.10;;
34924;SDS011;21130;51.728;8.748;2022-12-07T08:44:01;27.65;;;19.20;;
34924;SDS011;21130;51.728;8.748;2022-12-07T08:46:29;29.98;;;18.73;;
34924;SDS011;21130;51.728;8.748;2022-12-07T08:49:02;28.05;;;18.85;;
34924;SDS011;21130;51.728;8.748;2022-12-07T08:51:33;27.80;;;18.35;;
34924;SDS011;21130;51.728;8.748;2022-12-07T08:54:00;25.45;;;17.85;;
34924;SDS011;21130;51.728;8.748;2022-12-07T08:56:30;27.85;;;17.55;;
34924;SDS011;21130;51.728;8.748;2022-12-07T08:58:57;24.92;;;16.50;;
34924;SDS011;21130;51.728;8.748;2022-12-07T09:01:24;26.10;;;16.42;;
34924;SDS011;21130;51.728;8.748;2022-12-07T09:03:50;23.58;;;16.60;;
34924;SDS011;21130;51.728;8.748;2022-12-07T09:06:17;24.70;;;17.15;;
34924;SDS011;21130;51.728;8.748;2022-12-07T09:08:45;22.65;;;16.70;;
34924;SDS011;21130;51.728;8.748;2022-12-07T09:11:13;25.10;;;15.90;;
34924;SDS011;21130;51.728;8.748;2022-12-07T09:13:39;23.60;;;15.27;;
34924;SDS011;21130;51.728;8.748;2022-12-07T09:16:06;28.55;;;15.80;;
34924;SDS011;21130;51.728;8.748;2022-12-07T09:18:33;20.38;;;13.93;;
34924;SDS011;21130;51.728;8.748;2022-12-07T09:20:59;22.80;;;14.95;;
34924;SDS011;21130;51.728;8.748;2022-12-07T09:23:26;24.33;;;13.65;;
34924;SDS011;21130;51.728;8.748;2022-12-07T09:25:54;19.75;;;13.45;;
34924;SDS011;21130;51.728;8.748;2022-12-07T09:28:20;25.02;;;13.38;;
34924;SDS011;21130;51.728;8.748;2022-12-07T09:30:47;23.88;;;13.13;;
34924;SDS011;21130;51.728;8.748;2022-12-07T09:33:14;24.42;;;14.00;;
34924;SDS011;21130;51.728;8.748;2022-12-07T09:35:43;19.27;;;12.65;;
34924;SDS011;21130;51.728;8.748;2022-12-07T09:38:11;18.85;;;12.02;;
34924;SDS011;21130;51.728;8.748;2022-12-07T09:40:37;20.00;;;12.25;;
34924;SDS011;21130;51.728;8.748;2022-12-07T09:43:11;18.83;;;12.23;;
34924;SDS011;21130;51.728;8.748;2022-12-07T09:45:39;20.45;;;13.10;;
34924;SDS011;21130;51.728;8.748;2022-12-07T09:48:08;19.73;;;11.65;;
34924;SDS011;21130;51.728;8.748;2022-12-07T09:50:43;18.17;;;11.30;;
34924;SDS011;21130;51.728;8.748;2022-12-07T09:53:09;19.27;;;11.57;;
34924;SDS011;21130;51.728;8.748;2022-12-07T09:55:41;19.10;;;11.55;;
34924;SDS011;21130;51.728;8.748;2022-12-07T09:58:11;17.00;;;10.77;;
34924;SDS011;21130;51.728;8.748;2022-12-07T10:00:45;19.30;;;11.75;;
34924;SDS011;21130;51.728;8.748;2022-12-07T10:03:12;19.60;;;12.27;;
34924;SDS011;21130;51.728;8.748;2022-12-07T10:05:39;17.92;;;11.07;;
34924;SDS011;21130;51.728;8.748;2022-12-07T10:08:09;19.67;;;11.02;;
34924;SDS011;21130;51.728;8.748;2022-12-07T10:10:37;18.77;;;10.20;;
34924;SDS011;21130;51.728;8.748;2022-12-07T10:13:05;12.07;;;9.95;;
34924;SDS011;21130;51.728;8.748;2022-12-07T10:15:41;16.67;;;10.32;;
34924;SDS011;21130;51.728;8.748;2022-12-07T10:18:16;17.70;;;11.27;;
34924;SDS011;21130;51.728;8.748;2022-12-07T10:20:59;13.77;;;10.52;;
34924;SDS011;21130;51.728;8.748;2022-12-07T10:23:27;15.77;;;10.38;;
34924;SDS011;21130;51.728;8.748;2022-12-07T10:25:53;13.95;;;9.70;;
34924;SDS011;21130;51.728;8.748;2022-12-07T10:28:20;16.52;;;10.77;;
34924;SDS011;21130;51.728;8.748;2022-12-07T10:30:59;15.90;;;11.32;;
34924;SDS011;21130;51.728;8.748;2022-12-07T10:33:33;17.73;;;10.63;;
34924;SDS011;21130;51.728;8.748;2022-12-07T10:36:16;15.82;;;10.80;;
34924;SDS011;21130;51.728;8.748;2022-12-07T10:38:46;18.45;;;10.85;;
34924;SDS011;21130;51.728;8.748;2022-12-07T10:41:14;16.92;;;9.95;;
34924;SDS011;21130;51.728;8.748;2022-12-07T10:43:48;15.98;;;10.73;;
34924;SDS011;21130;51.728;8.748;2022-12-07T10:46:28;13.80;;;10.77;;
34924;SDS011;21130;51.728;8.748;2022-12-07T10:49:25;18.77;;;10.38;;
34924;SDS011;21130;51.728;8.748;2022-12-07T10:52:15;15.07;;;10.38;;
34924;SDS011;21130;51.728;8.748;2022-12-07T10:54:51;16.60;;;10.65;;
34924;SDS011;21130;51.728;8.748;2022-12-07T10:57:32;14.57;;;10.07;;
34924;SDS011;21130;51.728;8.748;2022-12-07T11:00:18;16.10;;;10.75;;
34924;SDS011;21130;51.728;8.748;2022-12-07T11:03:02;14.48;;;10.23;;
34924;SDS011;21130;51.728;8.748;2022-12-07T11:05:45;14.45;;;10.23;;
34924;SDS011;21130;51.728;8.748;2022-12-07T11:08:25;14.38;;;10.32;;
34924;SDS011;21130;51.728;8.748;2022-12-07T11:11:05;14.55;;;10.00;;
34924;SDS011;21130;51.728;8.748;2022-12-07T11:13:40;12.48;;;10.05;;
34924;SDS011;21130;51.728;8.748;2022-12-07T11:16:21;18.55;;;11.30;;
34924;SDS011;21130;51.728;8.748;2022-12-07T11:19:01;12.68;;;9.80;;
34924;SDS011;21130;51.728;8.748;2022-12-07T11:21:40;15.38;;;11.32;;
34924;SDS011;21130;51.728;8.748;2022-12-07T11:24:13;14.55;;;9.15;;
34924;SDS011;21130;51.728;8.748;2022-12-07T11:26:46;18.40;;;10.23;;
34924;SDS011;21130;51.728;8.748;2022-12-07T11:29:28;16.85;;;10.00;;
34924;SDS011;21130;51.728;8.748;2022-12-07T11:32:11;12.95;;;9.88;;
34924;SDS011;21130;51.728;8.748;2022-12-07T11:34:47;14.77;;;9.73;;
34924;SDS011;21130;51.728;8.748;2022-12-07T11:37:24;14.07;;;9.75;;
34924;SDS011;21130;51.728;8.748;2022-12-07T11:39:55;14.95;;;10.32;;
34924;SDS011;21130;51.728;8.748;2022-12-07T11:42:29;14.80;;;10.25;;
34924;SDS011;21130;51.728;8.748;2022-12-07T11:45:00;16.88;;;10.38;;
34924;SDS011;21130;51.728;8.748;2022-12-07T11:47:36;16.88;;;10.25;;
34924;SDS011;21130;51.728;8.748;2022-12-07T11:50:16;15.25;;;9.32;;
34924;SDS011;21130;51.728;8.748;2022-12-07T11:52:59;16.55;;;9.02;;
34924;SDS011;21130;51.728;8.748;2022-12-07T11:55:30;12.70;;;8.43;;
34924;SDS011;21130;51.728;8.748;2022-12-07T11:58:12;14.23;;;9.07;;
34924;SDS011;21130;51.728;8.748;2022-12-07T12:00:48;16.63;;;8.27;;
34924;SDS011;21130;51.728;8.748;2022-12-07T12:03:20;16.80;;;8.68;;
34924;SDS011;21130;51.728;8.748;2022-12-07T12:05:56;12.23;;;7.75;;
34924;SDS011;21130;51.728;8.748;2022-12-07T12:08:24;13.05;;;8.15;;
34924;SDS011;21130;51.728;8.748;2022-12-07T12:10:55;12.73;;;8.20;;
34924;SDS011;21130;51.728;8.748;2022-12-07T12:13:48;10.82;;;7.35;;
34924;SDS011;21130;51.728;8.748;2022-12-07T12:16:42;13.85;;;7.45;;
34924;SDS011;21130;51.728;8.748;2022-12-07T12:19:30;11.00;;;6.93;;
34924;SDS011;21130;51.728;8.748;2022-12-07T12:22:04;9.50;;;6.47;;
34924;SDS011;21130;51.728;8.748;2022-12-07T12:24:37;12.35;;;7.63;;
34924;SDS011;21130;51.728;8.748;2022-12-07T12:27:06;12.43;;;6.75;;
34924;SDS011;21130;51.728;8.748;2022-12-07T12:29:35;13.68;;;6.90;;
34924;SDS011;21130;51.728;8.748;2022-12-07T12:32:08;12.15;;;6.30;;
34924;SDS011;21130;51.728;8.748;2022-12-07T12:35:01;11.30;;;6.35;;
34924;SDS011;21130;51.728;8.748;2022-12-07T12:37:47;13.70;;;7.00;;
34924;SDS011;21130;51.728;8.748;2022-12-07T12:55:14;8.40;;;4.88;;
34924;SDS011;21130;51.728;8.748;2022-12-07T12:57:45;10.18;;;5.63;;
34924;SDS011;21130;51.728;8.748;2022-12-07T13:00:16;10.18;;;5.75;;
34924;SDS011;21130;51.728;8.748;2022-12-07T13:02:47;10.90;;;5.93;;
34924;SDS011;21130;51.728;8.748;2022-12-07T13:05:17;16.83;;;5.50;;
34924;SDS011;21130;51.728;8.748;2022-12-07T13:08:13;8.40;;;5.47;;
34924;SDS011;21130;51.728;8.748;2022-12-07T13:11:18;9.95;;;5.88;;
34924;SDS011;21130;51.728;8.748;2022-12-07T13:20:41;10.98;;;5.57;;
34924;SDS011;21130;51.728;8.748;2022-12-07T13:23:13;10.25;;;5.05;;
34924;SDS011;21130;51.728;8.748;2022-12-07T13:25:46;8.95;;;5.30;;
34924;SDS011;21130;51.728;8.748;2022-12-07T13:28:21;8.70;;;5.28;;
34924;SDS011;21130;51.728;8.748;2022-12-07T13:30:58;7.25;;;4.57;;
34924;SDS011;21130;51.728;8.748;2022-12-07T13:33:30;9.60;;;5.28;;
34924;SDS011;21130;51.728;8.748;2022-12-07T13:36:00;7.40;;;4.25;;
34924;SDS011;21130;51.728;8.748;2022-12-07T13:38:27;12.60;;;4.60;;
34924;SDS011;21130;51.728;8.748;2022-12-07T13:41:10;5.68;;;4.30;;
34924;SDS011;21130;51.728;8.748;2022-12-07T13:43:44;8.82;;;4.88;;
34924;SDS011;21130;51.728;8.748;2022-12-07T13:46:12;9.55;;;4.80;;
34924;SDS011;21130;51.728;8.748;2022-12-07T13:48:44;9.13;;;4.90;;
34924;SDS011;21130;51.728;8.748;2022-12-07T13:51:20;10.60;;;5.25;;
34924;SDS011;21130;51.728;8.748;2022-12-07T13:53:49;9.27;;;5.20;;
34924;SDS011;21130;51.728;8.748;2022-12-07T13:56:17;10.52;;;5.40;;
34924;SDS011;21130;51.728;8.748;2022-12-07T13:58:44;9.07;;;4.60;;
34924;SDS011;21130;51.728;8.748;2022-12-07T14:01:11;8.55;;;5.05;;
34924;SDS011;21130;51.728;8.748;2022-12-07T14:03:38;9.85;;;4.80;;
34924;SDS011;21130;51.728;8.748;2022-12-07T14:06:16;8.80;;;5.05;;
34924;SDS011;21130;51.728;8.748;2022-12-07T14:08:45;10.85;;;5.50;;
34924;SDS011;21130;51.728;8.748;2022-12-07T14:11:16;8.48;;;5.40;;
34924;SDS011;21130;51.728;8.748;2022-12-07T14:13:50;8.73;;;5.50;;
34924;SDS011;21130;51.728;8.748;2022-12-07T14:16:23;12.63;;;5.80;;
34924;SDS011;21130;51.728;8.748;2022-12-07T14:18:52;10.48;;;5.35;;
34924;SDS011;21130;51.728;8.748;2022-12-07T14:21:21;11.57;;;6.00;;
34924;SDS011;21130;51.728;8.748;2022-12-07T14:24:02;11.30;;;5.03;;
34924;SDS011;21130;51.728;8.748;2022-12-07T14:26:36;8.30;;;5.00;;
34924;SDS011;21130;51.728;8.748;2022-12-07T14:29:21;12.77;;;5.65;;
34924;SDS011;21130;51.728;8.748;2022-12-07T14:31:56;11.98;;;5.38;;
34924;SDS011;21130;51.728;8.748;2022-12-07T14:34:24;8.13;;;4.38;;
34924;SDS011;21130;51.728;8.748;2022-12-07T14:36:51;12.23;;;5.03;;
34924;SDS011;21130;51.728;8.748;2022-12-07T14:39:18;8.82;;;4.15;;
34924;SDS011;21130;51.728;8.748;2022-12-07T14:41:44;9.57;;;4.22;;
34924;SDS011;21130;51.728;8.748;2022-12-07T14:44:17;9.98;;;4.53;;
34924;SDS011;21130;51.728;8.748;2022-12-07T14:46:47;8.55;;;4.10;;
34924;SDS011;21130;51.728;8.748;2022-12-07T14:49:14;9.93;;;4.22;;
34924;SDS011;21130;51.728;8.748;2022-12-07T14:51:41;10.63;;;4.05;;
34924;SDS011;21130;51.728;8.748;2022-12-07T14:54:12;8.30;;;3.95;;
34924;SDS011;21130;51.728;8.748;2022-12-07T14:56:41;13.55;;;4.15;;
34924;SDS011;21130;51.728;8.748;2022-12-07T14:59:09;9.70;;;3.88;;
34924;SDS011;21130;51.728;8.748;2022-12-07T15:01:36;8.35;;;4.10;;
34924;SDS011;21130;51.728;8.748;2022-12-07T15:04:04;10.85;;;3.67;;